createdAt,value
2022-11-01T00:02:01.345Z,101427.25
2022-11-01T00:04:28.281Z,101427.41
2022-11-01T00:06:55.183Z,101433.25
2022-11-01T00:09:22.171Z,101426.72
2022-11-01T00:11:49.037Z,101420.84
2022-11-01T00:14:17.749Z,101429.50
2022-11-01T00:16:44.750Z,101429.81
2022-11-01T00:19:11.900Z,101421.63
2022-11-01T00:21:38.791Z,101423.72
2022-11-01T00:24:06.002Z,101428.13
2022-11-01T00:26:32.890Z,101424.53
2022-11-01T00:28:59.986Z,101428.59
2022-11-01T00:31:27.024Z,101431.00
2022-11-01T00:33:53.860Z,101422.34
2022-11-01T00:36:20.870Z,101421.06
2022-11-01T00:38:52.216Z,101424.72
2022-11-01T00:41:21.052Z,101420.63
2022-11-01T00:43:48.874Z,101420.44
2022-11-01T00:46:16.389Z,101420.59
2022-11-01T00:48:43.248Z,101421.69
2022-11-01T00:51:10.277Z,101423.81
2022-11-01T00:53:37.218Z,101421.19
2022-11-01T00:56:06.214Z,101407.72
2022-11-01T00:58:33.291Z,101422.94
2022-11-01T01:01:00.643Z,101414.25
2022-11-01T01:03:27.702Z,101418.28
2022-11-01T01:05:56.145Z,101422.38
2022-11-01T01:08:23.909Z,101418.09
2022-11-01T01:10:51.417Z,101420.84
2022-11-01T01:13:18.621Z,101419.16
2022-11-01T01:15:45.736Z,101415.94
2022-11-01T01:18:13.320Z,101414.66
2022-11-01T01:20:40.394Z,101410.88
2022-11-01T01:23:07.420Z,101414.88
2022-11-01T01:25:34.817Z,101415.81
2022-11-01T01:28:02.599Z,101400.75
2022-11-01T01:30:29.645Z,101419.50
2022-11-01T01:32:56.485Z,101421.03
2022-11-01T01:35:23.357Z,101419.09
2022-11-01T01:37:50.202Z,101412.53
2022-11-01T01:40:17.106Z,101413.66
2022-11-01T01:42:44.114Z,101408.47
2022-11-01T01:45:23.587Z,101424.25
2022-11-01T01:47:53.114Z,101419.19
2022-11-01T01:50:28.679Z,101417.25
2022-11-01T01:53:01.404Z,101414.69
2022-11-01T01:55:36.551Z,101415.31
2022-11-01T01:58:04.261Z,101414.69
2022-11-01T02:00:31.282Z,101419.72
2022-11-01T02:02:58.483Z,101424.63
2022-11-01T02:05:41.285Z,101422.50
2022-11-01T02:08:08.294Z,101429.25
2022-11-01T02:10:35.689Z,101427.69
2022-11-01T02:13:02.612Z,101415.00
2022-11-01T02:15:40.493Z,101434.69
2022-11-01T02:19:01.406Z,101430.97
2022-11-01T02:22:03.608Z,101422.31
2022-11-01T02:24:49.465Z,101420.84
2022-11-01T02:27:24.496Z,101423.63
2022-11-01T02:30:01.828Z,101427.50
2022-11-01T02:33:02.295Z,101429.06
2022-11-01T02:35:32.113Z,101435.13
2022-11-01T02:37:58.880Z,101442.69
2022-11-01T02:40:51.356Z,101444.63
2022-11-01T02:43:33.443Z,101438.72
2022-11-01T02:46:23.304Z,101432.28
2022-11-01T02:48:51.044Z,101441.78
2022-11-01T02:51:21.644Z,101438.72
2022-11-01T02:53:48.620Z,101434.31
2022-11-01T02:56:17.624Z,101441.78
2022-11-01T02:58:46.763Z,101440.47
2022-11-01T03:01:22.363Z,101431.44
2022-11-01T03:03:50.911Z,101441.19
2022-11-01T03:25:59.086Z,101448.53
2022-11-01T03:28:36.478Z,101445.63
2022-11-01T03:31:17.504Z,101445.66
2022-11-01T03:33:58.012Z,101449.16
2022-11-01T03:36:29.689Z,101449.38
2022-11-01T03:39:06.996Z,101452.97
2022-11-01T03:41:39.269Z,101444.78
2022-11-01T03:44:06.982Z,101451.44
2022-11-01T03:46:33.935Z,101442.50
2022-11-01T03:49:00.778Z,101449.88
2022-11-01T03:51:27.692Z,101442.84
2022-11-01T03:53:54.768Z,101446.81
2022-11-01T03:56:21.841Z,101442.41
2022-11-01T03:58:49.042Z,101450.50
2022-11-01T04:01:17.660Z,101448.16
2022-11-01T04:03:45.185Z,101448.88
2022-11-01T04:06:12.105Z,101454.47
2022-11-01T04:08:38.999Z,101451.81
2022-11-01T04:11:05.911Z,101445.03
2022-11-01T04:13:32.783Z,101450.97
2022-11-01T04:16:18.082Z,101452.09
2022-11-01T04:19:03.804Z,101452.72
2022-11-01T04:21:31.473Z,101459.16
2022-11-01T04:23:58.381Z,101458.53
2022-11-01T04:26:25.792Z,101449.81
2022-11-01T04:28:58.618Z,101457.72
2022-11-01T04:31:31.113Z,101464.59
2022-11-01T04:33:59.777Z,101463.56
2022-11-01T04:36:27.515Z,101457.91
2022-11-01T04:38:56.482Z,101468.50
2022-11-01T04:41:28.057Z,101473.38
2022-11-01T04:43:57.064Z,101472.25
2022-11-01T04:46:23.974Z,101474.31
2022-11-01T04:48:50.895Z,101479.97
2022-11-01T04:51:17.807Z,101478.63
2022-11-01T04:53:44.596Z,101477.41
2022-11-01T04:56:13.499Z,101478.84
2022-11-01T04:58:44.835Z,101479.56
2022-11-01T05:01:14.704Z,101485.19
2022-11-01T05:03:42.131Z,101479.19
2022-11-01T05:06:09.022Z,101486.53
2022-11-01T05:08:35.864Z,101486.34
2022-11-01T05:11:02.760Z,101491.28
2022-11-01T05:13:29.637Z,101483.34
2022-11-01T05:18:43.507Z,101491.28
2022-11-01T05:21:10.553Z,101500.72
2022-11-01T05:23:37.450Z,101497.69
2022-11-01T05:26:04.370Z,101501.41
2022-11-01T05:28:31.237Z,101496.66
2022-11-01T05:30:58.785Z,101506.34
2022-11-01T05:33:25.726Z,101506.94
2022-11-01T05:35:52.784Z,101507.78
2022-11-01T05:38:19.714Z,101511.00
2022-11-01T05:40:46.682Z,101513.94
2022-11-01T05:43:13.502Z,101508.78
2022-11-01T05:45:40.397Z,101504.69
2022-11-01T05:48:07.293Z,101513.72
2022-11-01T05:50:34.131Z,101513.94
2022-11-01T05:53:08.265Z,101516.09
2022-11-01T05:55:35.709Z,101518.91
2022-11-01T05:58:03.184Z,101515.91
2022-11-01T06:00:30.110Z,101516.22
2022-11-01T06:03:00.845Z,101523.81
2022-11-01T06:05:28.799Z,101520.97
2022-11-01T06:07:55.856Z,101530.97
2022-11-01T06:10:22.801Z,101520.13
2022-11-01T06:12:49.833Z,101517.38
2022-11-01T06:15:16.760Z,101522.94
2022-11-01T06:17:43.560Z,101535.78
2022-11-01T06:20:11.498Z,101536.50
2022-11-01T06:22:38.611Z,101534.91
2022-11-01T06:25:06.964Z,101537.28
2022-11-01T06:27:33.884Z,101537.06
2022-11-01T06:30:00.715Z,101540.81
2022-11-01T06:32:27.557Z,101543.34
2022-11-01T06:34:54.571Z,101542.53
2022-11-01T06:37:21.452Z,101540.06
2022-11-01T06:39:48.336Z,101535.06
2022-11-01T06:42:15.246Z,101542.75
2022-11-01T06:44:42.360Z,101544.19
2022-11-01T06:47:09.335Z,101544.97
2022-11-01T06:49:36.135Z,101546.84
2022-11-01T06:52:03.469Z,101544.47
2022-11-01T06:54:30.270Z,101549.88
2022-11-01T06:56:57.191Z,101552.47
2022-11-01T06:59:25.083Z,101547.31
2022-11-01T07:01:55.052Z,101564.31
2022-11-01T07:04:22.220Z,101557.81
2022-11-01T07:06:49.333Z,101567.94
2022-11-01T07:09:16.213Z,101560.25
2022-11-01T07:11:43.088Z,101561.53
2022-11-01T07:14:10.267Z,101554.22
2022-11-01T07:16:39.033Z,101561.63
2022-11-01T07:19:05.937Z,101560.66
2022-11-01T07:21:33.131Z,101568.72
2022-11-01T07:24:00.296Z,101559.22
2022-11-01T07:26:27.154Z,101561.78
2022-11-01T07:28:54.028Z,101561.94
2022-11-01T07:31:21.281Z,101558.16
2022-11-01T07:33:48.151Z,101555.38
2022-11-01T07:36:14.984Z,101563.63
2022-11-01T07:38:41.806Z,101551.75
2022-11-01T07:41:09.256Z,101556.56
2022-11-01T07:43:36.857Z,101557.06
2022-11-01T07:46:05.688Z,101567.00
2022-11-01T07:48:33.454Z,101560.50
2022-11-01T07:51:00.436Z,101558.50
2022-11-01T07:53:27.261Z,101555.66
2022-11-01T07:55:54.108Z,101550.78
2022-11-01T07:58:20.905Z,101547.31
2022-11-01T08:00:48.206Z,101559.94
2022-11-01T08:03:17.433Z,101559.88
2022-11-01T08:05:45.150Z,101547.31
2022-11-01T08:08:13.471Z,101550.00
2022-11-01T08:10:41.073Z,101551.84
2022-11-01T08:13:22.748Z,101542.88
2022-11-01T08:15:51.028Z,101542.91
2022-11-01T08:18:18.941Z,101546.94
2022-11-01T08:20:45.883Z,101545.72
2022-11-01T08:23:12.973Z,101539.03
2022-11-01T08:25:40.598Z,101549.38
2022-11-01T08:28:12.892Z,101544.94
2022-11-01T08:30:41.365Z,101552.13
2022-11-01T08:33:08.289Z,101541.19
2022-11-01T08:35:35.912Z,101551.00
2022-11-01T08:38:03.934Z,101548.94
2022-11-01T08:40:33.037Z,101543.72
2022-11-01T08:43:00.420Z,101553.56
2022-11-01T08:45:27.934Z,101552.16
2022-11-01T08:48:03.717Z,101549.00
2022-11-01T08:50:31.652Z,101547.75
2022-11-01T08:52:58.520Z,101557.88
2022-11-01T08:55:25.518Z,101542.91
2022-11-01T08:57:52.470Z,101551.84
2022-11-01T09:00:19.523Z,101546.78
2022-11-01T09:02:46.699Z,101550.22
2022-11-01T09:05:13.609Z,101544.09
2022-11-01T09:07:40.519Z,101542.09
2022-11-01T09:10:07.893Z,101542.53
2022-11-01T09:12:35.244Z,101539.22
2022-11-01T09:15:02.802Z,101538.34
2022-11-01T09:17:29.750Z,101543.34
2022-11-01T09:19:56.529Z,101538.34
2022-11-01T09:22:23.731Z,101544.44
2022-11-01T09:24:51.659Z,101540.00
2022-11-01T09:27:18.536Z,101531.06
2022-11-01T09:29:48.043Z,101528.31
2022-11-01T09:32:17.870Z,101541.72
2022-11-01T09:34:45.340Z,101539.19
2022-11-01T09:37:12.231Z,101535.78
2022-11-01T09:39:39.082Z,101527.56
2022-11-01T09:42:12.299Z,101526.38
2022-11-01T09:44:44.118Z,101536.47
2022-11-01T09:47:18.962Z,101542.13
2022-11-01T09:49:50.184Z,101536.03
2022-11-01T09:52:22.519Z,101528.34
2022-11-01T09:54:50.163Z,101524.72
2022-11-01T09:57:29.512Z,101520.13
2022-11-01T10:00:16.307Z,101523.31
2022-11-01T10:02:55.092Z,101521.97
2022-11-01T10:05:21.985Z,101519.44
2022-11-01T10:08:11.915Z,101513.94
2022-11-01T10:10:54.083Z,101515.28
2022-11-01T10:13:58.709Z,101511.41
2022-11-01T10:16:36.569Z,101526.38
2022-11-01T10:19:05.108Z,101519.22
2022-11-01T10:21:43.136Z,101513.66
2022-11-01T10:24:45.975Z,101508.47
2022-11-01T10:27:26.645Z,101518.22
2022-11-01T10:30:06.284Z,101509.34
2022-11-01T10:32:43.172Z,101517.38
2022-11-01T10:35:32.568Z,101513.41
2022-11-01T10:38:19.114Z,101505.75
2022-11-01T10:41:01.901Z,101509.91
2022-11-01T10:43:28.801Z,101518.25
2022-11-01T10:45:57.885Z,101508.63
2022-11-01T10:48:38.465Z,101505.69
2022-11-01T10:51:08.462Z,101495.66
2022-11-01T10:53:44.642Z,101507.34
2022-11-01T10:56:21.271Z,101492.09
2022-11-01T10:59:18.077Z,101491.03
2022-11-01T11:01:45.854Z,101490.78
2022-11-01T11:04:16.283Z,101478.34
2022-11-01T11:06:44.077Z,101488.38
2022-11-01T11:09:40.719Z,101476.31
2022-11-01T11:12:14.865Z,101470.09
2022-11-01T11:14:42.717Z,101471.25
2022-11-01T11:17:25.006Z,101466.97
2022-11-01T11:19:55.670Z,101468.72
2022-11-01T11:22:23.269Z,101455.66
2022-11-01T11:24:52.878Z,101464.72
2022-11-01T11:27:23.356Z,101468.34
2022-11-01T11:29:54.073Z,101462.06
2022-11-01T11:32:24.027Z,101458.56
2022-11-01T11:34:59.817Z,101460.41
2022-11-01T11:37:30.227Z,101457.75
2022-11-01T11:40:05.998Z,101447.72
2022-11-01T11:42:33.446Z,101451.34
2022-11-01T11:45:30.558Z,101445.34
2022-11-01T11:48:16.010Z,101445.94
2022-11-01T11:50:43.767Z,101442.78
2022-11-01T11:53:29.488Z,101451.91
2022-11-01T11:56:03.431Z,101446.78
2022-11-01T11:58:40.682Z,101438.78
2022-11-01T12:01:11.685Z,101446.59
2022-11-01T12:04:06.133Z,101451.97
2022-11-01T12:06:41.156Z,101452.84
2022-11-01T12:09:35.026Z,101445.41
2022-11-01T12:12:15.194Z,101446.25
2022-11-01T12:14:43.007Z,101438.03
2022-11-01T12:17:48.850Z,101448.53
2022-11-01T12:20:21.023Z,101442.13
2022-11-01T12:23:02.891Z,101444.56
2022-11-01T12:25:29.937Z,101445.47
2022-11-01T12:28:01.136Z,101444.28
2022-11-01T12:30:32.812Z,101446.03
2022-11-01T12:33:02.942Z,101440.31
2022-11-01T12:35:33.482Z,101450.78
2022-11-01T12:38:12.310Z,101449.72
2022-11-01T12:40:42.610Z,101443.63
2022-11-01T12:43:19.180Z,101435.81
2022-11-01T12:45:52.149Z,101444.31
2022-11-01T12:48:50.325Z,101445.31
2022-11-01T12:51:26.100Z,101450.97
2022-11-01T12:54:06.088Z,101448.97
2022-11-01T12:56:33.106Z,101442.03
2022-11-01T12:59:00.276Z,101438.75
2022-11-01T13:01:29.868Z,101441.81
2022-11-01T13:04:08.998Z,101445.34
2022-11-01T13:07:03.935Z,101442.94
2022-11-01T13:09:33.658Z,101435.59
2022-11-01T13:12:18.725Z,101434.09
2022-11-01T13:15:03.479Z,101438.44
2022-11-01T13:17:55.410Z,101443.94
2022-11-01T13:20:40.751Z,101443.81
2022-11-01T13:23:23.416Z,101432.50
2022-11-01T13:26:09.046Z,101438.31
2022-11-01T13:29:08.985Z,101441.75
2022-11-01T13:31:53.449Z,101446.13
2022-11-01T13:34:35.621Z,101437.50
2022-11-01T13:37:13.619Z,101442.22
2022-11-01T13:40:17.477Z,101435.69
2022-11-01T13:42:57.774Z,101434.94
2022-11-01T13:45:56.369Z,101435.19
2022-11-01T13:48:43.732Z,101436.84
2022-11-01T13:51:50.676Z,101436.84
2022-11-01T13:54:23.568Z,101432.41
2022-11-01T13:57:01.305Z,101423.09
2022-11-01T13:59:37.166Z,101431.25
2022-11-01T14:02:27.554Z,101424.13
2022-11-01T14:05:03.205Z,101435.00
2022-11-01T14:07:39.531Z,101422.22
2022-11-01T14:10:22.709Z,101424.41
2022-11-01T14:13:07.693Z,101429.34
2022-11-01T14:15:39.569Z,101421.53
2022-11-01T14:18:10.793Z,101419.09
2022-11-01T14:20:46.425Z,101425.47
2022-11-01T14:23:28.335Z,101421.38
2022-11-01T14:26:18.462Z,101415.22
2022-11-01T14:28:47.913Z,101405.22
2022-11-01T14:31:17.624Z,101416.34
2022-11-01T14:33:48.403Z,101416.19
2022-11-01T14:36:18.387Z,101405.56
2022-11-01T14:38:51.884Z,101420.66
2022-11-01T14:41:20.606Z,101408.50
2022-11-01T14:43:52.194Z,101410.72
2022-11-01T14:46:25.819Z,101415.66
2022-11-01T14:49:03.233Z,101416.81
2022-11-01T14:51:41.806Z,101407.88
2022-11-01T14:54:42.563Z,101411.97
2022-11-01T14:57:28.019Z,101401.69
2022-11-01T14:59:56.211Z,101400.72
2022-11-01T15:02:25.697Z,101406.13
2022-11-01T15:05:01.703Z,101399.13
2022-11-01T15:07:32.863Z,101401.09
2022-11-01T15:10:04.689Z,101403.88
2022-11-01T15:27:38.874Z,101392.91
2022-11-01T15:30:07.923Z,101396.03
2022-11-01T15:32:35.544Z,101397.19
2022-11-01T15:35:19.127Z,101394.03
2022-11-01T15:37:53.278Z,101404.16
2022-11-01T15:40:26.132Z,101403.16
2022-11-01T15:42:57.794Z,101407.91
2022-11-01T15:45:33.797Z,101401.84
2022-11-01T15:48:06.591Z,101405.28
2022-11-01T15:50:36.706Z,101408.56
2022-11-01T15:53:08.223Z,101415.25
2022-11-01T15:55:40.786Z,101412.78
2022-11-01T15:58:10.578Z,101405.94
2022-11-01T16:00:44.611Z,101415.09
2022-11-01T16:03:25.475Z,101411.63
2022-11-01T16:05:59.779Z,101409.69
2022-11-01T16:08:43.198Z,101403.66
2022-11-01T16:11:10.328Z,101406.59
2022-11-01T16:13:37.590Z,101408.88
2022-11-01T16:16:16.254Z,101418.03
2022-11-01T16:18:45.322Z,101411.66
2022-11-01T16:21:30.878Z,101416.75
2022-11-01T16:24:15.605Z,101418.22
2022-11-01T16:26:54.692Z,101421.34
2022-11-01T16:29:42.545Z,101422.97
2022-11-01T16:32:24.097Z,101415.59
2022-11-01T16:34:51.290Z,101415.09
2022-11-01T16:37:21.477Z,101425.09
2022-11-01T16:39:48.491Z,101431.78
2022-11-01T16:42:16.205Z,101427.38
2022-11-01T16:44:44.549Z,101421.63
2022-11-01T16:47:13.988Z,101416.09
2022-11-01T16:49:56.977Z,101422.47
2022-11-01T16:52:23.738Z,101422.63
2022-11-01T16:54:53.617Z,101421.34
2022-11-01T16:57:29.182Z,101410.06
2022-11-01T16:59:56.560Z,101416.91
2022-11-01T17:02:24.090Z,101420.97
2022-11-01T17:04:54.557Z,101421.19
2022-11-01T17:07:21.380Z,101419.03
2022-11-01T17:09:48.404Z,101418.72
2022-11-01T17:12:15.287Z,101425.25
2022-11-01T17:14:43.189Z,101413.19
2022-11-01T17:17:17.154Z,101411.88
2022-11-01T17:19:47.706Z,101418.88
2022-11-01T17:22:20.889Z,101416.91
2022-11-01T17:24:48.037Z,101402.56
2022-11-01T17:27:15.759Z,101408.13
2022-11-01T17:29:43.153Z,101402.06
2022-11-01T17:32:11.562Z,101399.13
2022-11-01T17:34:39.102Z,101403.22
2022-11-01T17:37:06.660Z,101396.50
2022-11-01T17:39:33.655Z,101395.03
2022-11-01T17:42:00.604Z,101403.53
2022-11-01T17:44:27.734Z,101389.47
2022-11-01T17:46:54.751Z,101407.13
2022-11-01T17:49:24.415Z,101401.25
2022-11-01T17:51:54.879Z,101400.59
2022-11-01T17:54:23.497Z,101399.13
2022-11-01T17:56:51.539Z,101398.00
2022-11-01T17:59:18.820Z,101397.31
2022-11-01T18:01:45.805Z,101397.66
2022-11-01T18:04:15.135Z,101396.19
2022-11-01T18:06:42.620Z,101396.81
2022-11-01T18:09:26.141Z,101395.38
2022-11-01T18:12:09.954Z,101389.81
2022-11-01T18:15:03.220Z,101387.69
2022-11-01T18:18:03.706Z,101391.78
2022-11-01T18:20:48.799Z,101396.19
2022-11-01T18:23:20.250Z,101396.34
2022-11-01T18:25:49.009Z,101386.06
2022-11-01T18:28:25.365Z,101390.00
2022-11-01T18:31:11.182Z,101388.53
2022-11-01T18:33:58.569Z,101388.03
2022-11-01T18:36:32.913Z,101394.56
2022-11-01T18:39:21.697Z,101385.41
2022-11-01T18:41:49.914Z,101384.59
2022-11-01T18:44:17.213Z,101382.94
2022-11-01T18:46:55.317Z,101383.28
2022-11-01T18:49:25.862Z,101376.41
2022-11-01T18:51:55.559Z,101380.84
2022-11-01T18:54:26.054Z,101380.84
2022-11-01T18:57:16.191Z,101379.00
2022-11-01T18:59:44.286Z,101377.22
2022-11-01T19:02:11.145Z,101380.00
2022-11-01T19:04:41.147Z,101376.56
2022-11-01T19:07:39.389Z,101368.91
2022-11-01T19:10:24.102Z,101374.78
2022-11-01T19:12:56.486Z,101366.44
2022-11-01T19:15:30.639Z,101366.94
2022-11-01T19:18:03.558Z,101369.38
2022-11-01T19:20:34.593Z,101365.44
2022-11-01T19:23:03.509Z,101377.56
2022-11-01T19:25:32.853Z,101378.84
2022-11-01T19:28:03.215Z,101371.81
2022-11-01T19:30:32.782Z,101370.00
2022-11-01T19:33:19.518Z,101369.38
2022-11-01T19:35:52.247Z,101365.94
2022-11-01T19:38:20.069Z,101373.13
2022-11-01T19:40:49.962Z,101376.34
2022-11-01T19:43:20.657Z,101377.84
2022-11-01T19:45:50.910Z,101365.25
2022-11-01T19:48:22.399Z,101367.41
2022-11-01T19:50:49.548Z,101369.78
2022-11-01T19:53:30.192Z,101368.69
2022-11-01T19:56:05.752Z,101372.94
2022-11-01T19:58:39.320Z,101368.84
2022-11-01T20:01:16.829Z,101368.00
2022-11-01T20:03:56.932Z,101366.81
2022-11-01T20:06:35.482Z,101371.72
2022-11-01T20:09:31.138Z,101373.00
2022-11-01T20:11:58.054Z,101368.91
2022-11-01T20:14:24.923Z,101370.72
2022-11-01T20:16:51.989Z,101367.44
2022-11-01T20:19:18.884Z,101364.69
2022-11-01T20:21:45.990Z,101364.81
2022-11-01T20:24:13.301Z,101367.75
2022-11-01T20:26:40.233Z,101375.06
2022-11-01T20:29:07.107Z,101351.13
2022-11-01T20:31:34.115Z,101355.03
2022-11-01T20:34:01.055Z,101351.28
2022-11-01T20:36:28.695Z,101354.38
2022-11-01T20:38:55.743Z,101362.38
2022-11-01T20:41:22.794Z,101363.34
2022-11-01T20:43:49.717Z,101362.53
2022-11-01T20:46:16.784Z,101362.84
2022-11-01T20:48:45.268Z,101358.66
2022-11-01T20:51:13.541Z,101359.78
2022-11-01T20:53:41.261Z,101351.50
2022-11-01T20:56:09.142Z,101358.81
2022-11-01T20:58:41.845Z,101356.53
2022-11-01T21:01:17.286Z,101352.63
2022-11-01T21:03:44.542Z,101349.06
2022-11-01T21:06:13.722Z,101346.75
2022-11-01T21:08:43.153Z,101345.41
2022-11-01T21:11:18.069Z,101339.84
2022-11-01T21:13:45.762Z,101339.22
2022-11-01T21:16:29.569Z,101338.22
2022-11-01T21:19:03.309Z,101332.00
2022-11-01T21:21:45.265Z,101328.06
2022-11-01T21:24:28.936Z,101332.81
2022-11-01T21:27:05.579Z,101332.28
2022-11-01T21:29:32.659Z,101326.06
2022-11-01T21:31:59.621Z,101325.44
2022-11-01T21:34:29.647Z,101331.94
2022-11-01T21:36:58.601Z,101321.66
2022-11-01T21:39:27.437Z,101315.00
2022-11-01T21:41:54.247Z,101316.59
2022-11-01T21:44:39.997Z,101322.47
2022-11-01T21:47:07.918Z,101318.53
2022-11-01T21:49:36.663Z,101319.53
2022-11-01T21:52:05.821Z,101316.28
2022-11-01T21:54:35.890Z,101318.72
2022-11-01T21:57:05.201Z,101313.88
2022-11-01T21:59:32.472Z,101314.22
2022-11-01T22:02:01.467Z,101309.31
2022-11-01T22:04:32.965Z,101310.63
2022-11-01T22:07:01.843Z,101303.78
2022-11-01T22:09:29.855Z,101317.47
2022-11-01T22:11:56.907Z,101312.56
2022-11-01T22:14:24.421Z,101309.16
2022-11-01T22:16:51.816Z,101301.81
2022-11-01T22:19:18.718Z,101299.38
2022-11-01T22:24:18.002Z,101297.94
2022-11-01T22:26:44.807Z,101288.81
2022-11-01T22:29:11.659Z,101287.03
2022-11-01T22:31:38.530Z,101291.94
2022-11-01T22:34:05.333Z,101296.13
2022-11-01T22:36:36.284Z,101295.78
2022-11-01T22:39:13.062Z,101292.69
2022-11-01T22:41:40.740Z,101284.53
2022-11-01T22:44:14.477Z,101284.06
2022-11-01T22:46:59.011Z,101284.72
2022-11-01T22:49:28.271Z,101280.78
2022-11-01T22:52:05.568Z,101273.25
2022-11-01T22:54:40.924Z,101270.31
2022-11-01T22:57:16.046Z,101260.88
2022-11-01T22:59:52.221Z,101264.78
2022-11-01T23:02:36.093Z,101260.41
2022-11-01T23:05:05.979Z,101261.31
2022-11-01T23:07:40.079Z,101255.28
2022-11-01T23:10:30.918Z,101249.25
2022-11-01T23:13:19.539Z,101254.78
2022-11-01T23:15:46.597Z,101250.41
2022-11-01T23:18:17.374Z,101247.94
2022-11-01T23:20:48.360Z,101248.13
2022-11-01T23:23:19.894Z,101251.69
2022-11-01T23:25:47.528Z,101241.78
2022-11-01T23:28:15.263Z,101246.13
2022-11-01T23:30:43.028Z,101248.59
2022-11-01T23:33:15.752Z,101253.97
2022-11-01T23:35:50.769Z,101251.84
2022-11-01T23:38:34.711Z,101245.94
2022-11-01T23:41:02.601Z,101243.00
2022-11-01T23:43:36.338Z,101240.59
2022-11-01T23:46:04.529Z,101243.97
2022-11-01T23:48:31.402Z,101235.97
2022-11-01T23:50:58.366Z,101235.13
2022-11-01T23:53:35.357Z,101228.41
2022-11-01T23:56:05.929Z,101232.25
2022-11-01T23:58:34.723Z,101229.63
